Main page
METAR-TAF:

METAR-TAF

Airports :

Sundsvall–Timrå Airport

Sundsvall-Härnösand, Sweden

latitude: 62-32N, longitude: 017-27E, elevation: 4 m

Current weather observation

The report was made 19 minutes ago, at 16:50 UTC
Wind 9 kt from the Southwest
Temperature 4°C
Humidity 70%
Pressure 984 hPa
Visibility 10 km or more
Few clouds at a height of 4700 ft

METAR: ESNN 051650Z 23009KT 9999 FEW047 04/M01 Q0984 R16/79//39

Time: 18:09 (17:09 UTC)

Forecast

The report was made 2 hours and 39 minutes ago, at 14:30 UTC
Forecast valid from 05 at 15 UTC to 05 at 23 UTC
Wind 7 kt from the South/Southwest
Visibility 10 km or more
no clouds below 1500 m and no cumulonimbus

TAF: ESNN 051430Z 0515/0523 21007KT CAVOK

Weather observations and forecasts of more than 4000 airports (METAR and TAF reports).

The available stations are represented by yellow and red dots on the map.

Hover mouse over dot to see the name of the station.

Then click to see weather observations and forecasts.

To change the map : click on the green buttons with a black cross to zoom in, on the green button with a dash to zoom out, or on the green arrows for adjacent maps.


METAR-TAF: